sensor_id;sensor_type;location;lat;lon;timestamp;P1;durP1;ratioP1;P2;durP2;ratioP2
8777;SDS011;4425;50.872;4.712;2023-11-22T00:02:15;16.98;;;10.20;;
8777;SDS011;4425;50.872;4.712;2023-11-22T00:04:44;1.83;;;1.48;;
8777;SDS011;4425;50.872;4.712;2023-11-22T00:07:11;6.97;;;5.93;;
8777;SDS011;4425;50.872;4.712;2023-11-22T00:09:38;3.47;;;3.13;;
8777;SDS011;4425;50.872;4.712;2023-11-22T00:12:07;1.65;;;1.55;;
8777;SDS011;4425;50.872;4.712;2023-11-22T00:14:35;3.35;;;2.97;;
8777;SDS011;4425;50.872;4.712;2023-11-22T00:17:02;5.78;;;3.83;;
8777;SDS011;4425;50.872;4.712;2023-11-22T00:19:29;6.13;;;3.23;;
8777;SDS011;4425;50.872;4.712;2023-11-22T00:21:59;6.57;;;3.70;;
8777;SDS011;4425;50.872;4.712;2023-11-22T00:24:28;2.00;;;1.60;;
8777;SDS011;4425;50.872;4.712;2023-11-22T00:26:55;0.40;;;0.40;;
8777;SDS011;4425;50.872;4.712;2023-11-22T00:29:22;0.47;;;0.47;;
8777;SDS011;4425;50.872;4.712;2023-11-22T01:56:24;8.23;;;5.13;;
8777;SDS011;4425;50.872;4.712;2023-11-22T01:58:53;4.80;;;4.40;;
8777;SDS011;4425;50.872;4.712;2023-11-22T02:01:21;3.40;;;3.10;;
8777;SDS011;4425;50.872;4.712;2023-11-22T02:03:48;13.13;;;6.65;;
8777;SDS011;4425;50.872;4.712;2023-11-22T02:06:17;5.32;;;4.30;;
8777;SDS011;4425;50.872;4.712;2023-11-22T02:08:44;9.85;;;6.05;;
8777;SDS011;4425;50.872;4.712;2023-11-22T02:11:12;1.13;;;1.05;;
8777;SDS011;4425;50.872;4.712;2023-11-22T02:13:47;7.75;;;5.18;;
8777;SDS011;4425;50.872;4.712;2023-11-22T02:16:17;4.07;;;2.70;;
8777;SDS011;4425;50.872;4.712;2023-11-22T02:18:44;1.23;;;1.23;;
8777;SDS011;4425;50.872;4.712;2023-11-22T02:21:12;4.57;;;2.55;;
8777;SDS011;4425;50.872;4.712;2023-11-22T02:23:41;3.72;;;3.47;;
8777;SDS011;4425;50.872;4.712;2023-11-22T02:26:07;3.13;;;2.78;;
8777;SDS011;4425;50.872;4.712;2023-11-22T02:28:35;6.50;;;4.25;;
8777;SDS011;4425;50.872;4.712;2023-11-22T02:31:03;3.75;;;3.38;;
8777;SDS011;4425;50.872;4.712;2023-11-22T02:33:30;10.50;;;6.43;;
8777;SDS011;4425;50.872;4.712;2023-11-22T02:35:57;1.67;;;1.55;;
8777;SDS011;4425;50.872;4.712;2023-11-22T02:38:24;4.35;;;3.72;;
8777;SDS011;4425;50.872;4.712;2023-11-22T02:40:54;0.80;;;0.80;;
8777;SDS011;4425;50.872;4.712;2023-11-22T02:43:21;1.42;;;1.33;;
8777;SDS011;4425;50.872;4.712;2023-11-22T02:45:48;0.55;;;0.55;;
8777;SDS011;4425;50.872;4.712;2023-11-22T02:48:15;4.68;;;3.08;;
8777;SDS011;4425;50.872;4.712;2023-11-22T02:50:43;13.23;;;7.38;;
8777;SDS011;4425;50.872;4.712;2023-11-22T02:53:12;7.32;;;4.45;;
8777;SDS011;4425;50.872;4.712;2023-11-22T02:55:39;8.57;;;5.57;;
8777;SDS011;4425;50.872;4.712;2023-11-22T02:58:14;2.60;;;2.40;;
8777;SDS011;4425;50.872;4.712;2023-11-22T03:00:42;1.15;;;1.15;;
8777;SDS011;4425;50.872;4.712;2023-11-22T03:03:09;2.15;;;0.70;;
8777;SDS011;4425;50.872;4.712;2023-11-22T03:05:39;0.47;;;0.47;;
8777;SDS011;4425;50.872;4.712;2023-11-22T03:08:06;0.90;;;0.90;;
8777;SDS011;4425;50.872;4.712;2023-11-22T03:10:35;2.30;;;1.70;;
8777;SDS011;4425;50.872;4.712;2023-11-22T03:13:02;0.60;;;0.60;;
8777;SDS011;4425;50.872;4.712;2023-11-22T03:15:31;0.95;;;0.95;;
8777;SDS011;4425;50.872;4.712;2023-11-22T03:17:58;4.80;;;1.65;;
8777;SDS011;4425;50.872;4.712;2023-11-22T03:20:26;1.60;;;0.90;;
8777;SDS011;4425;50.872;4.712;2023-11-22T03:22:53;4.33;;;2.23;;
8777;SDS011;4425;50.872;4.712;2023-11-22T03:25:20;9.00;;;1.30;;
8777;SDS011;4425;50.872;4.712;2023-11-22T03:27:48;0.63;;;0.63;;
8777;SDS011;4425;50.872;4.712;2023-11-22T03:30:15;1.73;;;1.48;;
8777;SDS011;4425;50.872;4.712;2023-11-22T03:32:43;0.90;;;0.90;;
8777;SDS011;4425;50.872;4.712;2023-11-22T03:35:10;0.45;;;0.45;;
8777;SDS011;4425;50.872;4.712;2023-11-22T03:37:38;2.00;;;1.90;;
8777;SDS011;4425;50.872;4.712;2023-11-22T03:40:05;0.30;;;0.30;;
8777;SDS011;4425;50.872;4.712;2023-11-22T03:42:35;0.20;;;0.20;;
8777;SDS011;4425;50.872;4.712;2023-11-22T03:45:03;0.20;;;0.20;;
8777;SDS011;4425;50.872;4.712;2023-11-22T03:47:30;0.20;;;0.20;;
8777;SDS011;4425;50.872;4.712;2023-11-22T03:49:59;0.73;;;0.73;;
8777;SDS011;4425;50.872;4.712;2023-11-22T03:52:26;0.80;;;0.80;;
8777;SDS011;4425;50.872;4.712;2023-11-22T03:54:53;0.30;;;0.30;;
8777;SDS011;4425;50.872;4.712;2023-11-22T03:57:22;0.30;;;0.30;;
8777;SDS011;4425;50.872;4.712;2023-11-22T03:59:49;2.28;;;2.17;;
8777;SDS011;4425;50.872;4.712;2023-11-22T04:02:16;0.95;;;0.95;;
8777;SDS011;4425;50.872;4.712;2023-11-22T04:04:43;1.73;;;1.63;;
8777;SDS011;4425;50.872;4.712;2023-11-22T04:07:12;0.60;;;0.60;;
8777;SDS011;4425;50.872;4.712;2023-11-22T04:09:39;0.20;;;0.20;;
8777;SDS011;4425;50.872;4.712;2023-11-22T04:12:06;0.37;;;0.37;;
8777;SDS011;4425;50.872;4.712;2023-11-22T04:14:33;0.60;;;0.60;;
8777;SDS011;4425;50.872;4.712;2023-11-22T04:17:00;27.80;;;17.00;;
8777;SDS011;4425;50.872;4.712;2023-11-22T04:19:29;25.90;;;12.18;;
8777;SDS011;4425;50.872;4.712;2023-11-22T04:21:56;0.40;;;0.40;;
8777;SDS011;4425;50.872;4.712;2023-11-22T04:24:25;1.90;;;1.63;;
8777;SDS011;4425;50.872;4.712;2023-11-22T04:26:54;1.50;;;1.30;;
8777;SDS011;4425;50.872;4.712;2023-11-22T04:29:21;0.30;;;0.30;;
8777;SDS011;4425;50.872;4.712;2023-11-22T04:31:48;1.20;;;1.17;;
8777;SDS011;4425;50.872;4.712;2023-11-22T04:34:15;1.98;;;1.88;;
8777;SDS011;4425;50.872;4.712;2023-11-22T04:36:42;0.22;;;0.22;;
8777;SDS011;4425;50.872;4.712;2023-11-22T04:39:11;1.70;;;1.50;;
8777;SDS011;4425;50.872;4.712;2023-11-22T04:41:40;1.80;;;1.70;;
8777;SDS011;4425;50.872;4.712;2023-11-22T04:44:07;2.60;;;1.63;;
8777;SDS011;4425;50.872;4.712;2023-11-22T04:46:34;1.57;;;1.47;;
8777;SDS011;4425;50.872;4.712;2023-11-22T04:49:01;1.55;;;1.45;;
8777;SDS011;4425;50.872;4.712;2023-11-22T04:51:28;0.52;;;0.52;;
8777;SDS011;4425;50.872;4.712;2023-11-22T04:53:55;18.90;;;10.43;;
8777;SDS011;4425;50.872;4.712;2023-11-22T04:56:22;18.17;;;10.80;;
8777;SDS011;4425;50.872;4.712;2023-11-22T04:58:51;20.60;;;10.77;;
8777;SDS011;4425;50.872;4.712;2023-11-22T05:01:19;17.85;;;11.10;;
8777;SDS011;4425;50.872;4.712;2023-11-22T05:03:46;18.33;;;11.23;;
8777;SDS011;4425;50.872;4.712;2023-11-22T05:06:13;3.15;;;2.05;;
8777;SDS011;4425;50.872;4.712;2023-11-22T05:08:41;0.68;;;0.68;;
8777;SDS011;4425;50.872;4.712;2023-11-22T05:11:09;0.80;;;0.80;;
8777;SDS011;4425;50.872;4.712;2023-11-22T05:13:36;0.35;;;0.35;;
8777;SDS011;4425;50.872;4.712;2023-11-22T05:16:05;0.30;;;0.30;;
8777;SDS011;4425;50.872;4.712;2023-11-22T05:18:32;0.98;;;0.98;;
8777;SDS011;4425;50.872;4.712;2023-11-22T05:21:09;0.20;;;0.20;;
8777;SDS011;4425;50.872;4.712;2023-11-22T05:23:36;0.95;;;0.95;;
8777;SDS011;4425;50.872;4.712;2023-11-22T05:26:03;1.70;;;1.60;;
8777;SDS011;4425;50.872;4.712;2023-11-22T05:28:30;0.25;;;0.25;;
8777;SDS011;4425;50.872;4.712;2023-11-22T05:30:58;1.10;;;0.90;;
8777;SDS011;4425;50.872;4.712;2023-11-22T05:33:27;2.72;;;2.30;;
8777;SDS011;4425;50.872;4.712;2023-11-22T05:35:54;0.65;;;0.65;;
8777;SDS011;4425;50.872;4.712;2023-11-22T05:38:21;0.22;;;0.22;;
8777;SDS011;4425;50.872;4.712;2023-11-22T05:40:47;0.30;;;0.30;;
8777;SDS011;4425;50.872;4.712;2023-11-22T05:43:15;3.30;;;2.90;;
8777;SDS011;4425;50.872;4.712;2023-11-22T05:45:42;1.20;;;1.20;;
8777;SDS011;4425;50.872;4.712;2023-11-22T05:48:14;1.30;;;1.20;;
8777;SDS011;4425;50.872;4.712;2023-11-22T05:50:43;0.30;;;0.30;;
8777;SDS011;4425;50.872;4.712;2023-11-22T05:53:10;0.30;;;0.30;;
8777;SDS011;4425;50.872;4.712;2023-11-22T05:55:37;1.77;;;1.67;;
8777;SDS011;4425;50.872;4.712;2023-11-22T05:58:04;0.30;;;0.30;;
8777;SDS011;4425;50.872;4.712;2023-11-22T06:00:31;0.98;;;0.98;;
8777;SDS011;4425;50.872;4.712;2023-11-22T06:02:58;0.60;;;0.60;;
8777;SDS011;4425;50.872;4.712;2023-11-22T06:05:26;39.22;;;14.65;;
8777;SDS011;4425;50.872;4.712;2023-11-22T06:07:57;27.48;;;13.50;;
8777;SDS011;4425;50.872;4.712;2023-11-22T06:10:27;26.35;;;14.13;;
8777;SDS011;4425;50.872;4.712;2023-11-22T06:12:54;0.20;;;0.20;;
8777;SDS011;4425;50.872;4.712;2023-11-22T06:15:21;0.50;;;0.45;;
8777;SDS011;4425;50.872;4.712;2023-11-22T06:17:49;0.15;;;0.15;;
8777;SDS011;4425;50.872;4.712;2023-11-22T06:20:18;0.65;;;0.65;;
8777;SDS011;4425;50.872;4.712;2023-11-22T06:22:46;5.28;;;3.03;;
8777;SDS011;4425;50.872;4.712;2023-11-22T06:25:15;0.98;;;0.98;;
8777;SDS011;4425;50.872;4.712;2023-11-22T06:27:43;0.52;;;0.52;;
8777;SDS011;4425;50.872;4.712;2023-11-22T06:30:13;0.40;;;0.40;;
8777;SDS011;4425;50.872;4.712;2023-11-22T06:32:44;3.10;;;1.42;;
8777;SDS011;4425;50.872;4.712;2023-11-22T06:35:11;0.30;;;0.30;;
8777;SDS011;4425;50.872;4.712;2023-11-22T06:37:39;0.20;;;0.20;;
8777;SDS011;4425;50.872;4.712;2023-11-22T06:40:19;0.73;;;0.73;;
8777;SDS011;4425;50.872;4.712;2023-11-22T06:42:48;0.20;;;0.20;;
8777;SDS011;4425;50.872;4.712;2023-11-22T06:45:18;0.20;;;0.20;;
8777;SDS011;4425;50.872;4.712;2023-11-22T06:47:48;0.30;;;0.30;;
8777;SDS011;4425;50.872;4.712;2023-11-22T06:50:15;0.20;;;0.20;;
8777;SDS011;4425;50.872;4.712;2023-11-22T06:52:46;2.30;;;2.20;;
8777;SDS011;4425;50.872;4.712;2023-11-22T06:55:21;2.50;;;2.30;;
8777;SDS011;4425;50.872;4.712;2023-11-22T06:57:49;0.32;;;0.32;;
8777;SDS011;4425;50.872;4.712;2023-11-22T07:00:19;0.55;;;0.55;;
8777;SDS011;4425;50.872;4.712;2023-11-22T07:02:48;0.35;;;0.35;;
8777;SDS011;4425;50.872;4.712;2023-11-22T07:05:15;0.40;;;0.40;;
8777;SDS011;4425;50.872;4.712;2023-11-22T07:07:48;0.20;;;0.20;;
8777;SDS011;4425;50.872;4.712;2023-11-22T07:10:15;0.60;;;0.60;;
8777;SDS011;4425;50.872;4.712;2023-11-22T07:12:47;1.40;;;1.30;;
8777;SDS011;4425;50.872;4.712;2023-11-22T07:15:14;0.30;;;0.30;;
8777;SDS011;4425;50.872;4.712;2023-11-22T07:17:41;0.20;;;0.20;;
8777;SDS011;4425;50.872;4.712;2023-11-22T07:20:08;0.30;;;0.30;;
8777;SDS011;4425;50.872;4.712;2023-11-22T07:22:41;1.95;;;1.35;;
8777;SDS011;4425;50.872;4.712;2023-11-22T07:25:09;0.50;;;0.50;;
8777;SDS011;4425;50.872;4.712;2023-11-22T07:27:43;0.70;;;0.70;;
8777;SDS011;4425;50.872;4.712;2023-11-22T07:30:13;0.20;;;0.20;;
8777;SDS011;4425;50.872;4.712;2023-11-22T07:32:41;2.30;;;1.50;;
8777;SDS011;4425;50.872;4.712;2023-11-22T07:35:09;29.50;;;15.57;;
8777;SDS011;4425;50.872;4.712;2023-11-22T07:37:36;45.30;;;22.02;;
8777;SDS011;4425;50.872;4.712;2023-11-22T07:40:06;37.47;;;17.80;;
8777;SDS011;4425;50.872;4.712;2023-11-22T07:42:34;34.25;;;17.25;;
8777;SDS011;4425;50.872;4.712;2023-11-22T07:45:01;2.40;;;1.70;;
8777;SDS011;4425;50.872;4.712;2023-11-22T07:47:30;0.30;;;0.30;;
8777;SDS011;4425;50.872;4.712;2023-11-22T07:49:57;0.30;;;0.30;;
8777;SDS011;4425;50.872;4.712;2023-11-22T07:52:26;0.43;;;0.43;;
8777;SDS011;4425;50.872;4.712;2023-11-22T07:54:55;0.30;;;0.30;;
8777;SDS011;4425;50.872;4.712;2023-11-22T07:57:22;0.30;;;0.30;;
8777;SDS011;4425;50.872;4.712;2023-11-22T07:59:50;0.50;;;0.40;;
8777;SDS011;4425;50.872;4.712;2023-11-22T08:02:20;0.30;;;0.30;;
8777;SDS011;4425;50.872;4.712;2023-11-22T08:04:48;0.28;;;0.28;;
8777;SDS011;4425;50.872;4.712;2023-11-22T08:07:16;0.30;;;0.30;;
8777;SDS011;4425;50.872;4.712;2023-11-22T08:09:43;0.30;;;0.30;;
8777;SDS011;4425;50.872;4.712;2023-11-22T08:12:10;0.20;;;0.20;;
8777;SDS011;4425;50.872;4.712;2023-11-22T08:14:38;0.30;;;0.30;;
8777;SDS011;4425;50.872;4.712;2023-11-22T08:17:05;3.20;;;0.70;;
8777;SDS011;4425;50.872;4.712;2023-11-22T08:19:32;0.25;;;0.25;;
8777;SDS011;4425;50.872;4.712;2023-11-22T08:22:01;1.50;;;0.85;;
8777;SDS011;4425;50.872;4.712;2023-11-22T08:24:29;0.20;;;0.20;;
8777;SDS011;4425;50.872;4.712;2023-11-22T08:26:56;0.57;;;0.57;;
8777;SDS011;4425;50.872;4.712;2023-11-22T08:29:23;3.20;;;2.83;;
8777;SDS011;4425;50.872;4.712;2023-11-22T08:31:50;1.45;;;1.35;;
8777;SDS011;4425;50.872;4.712;2023-11-22T08:34:17;0.98;;;0.98;;
8777;SDS011;4425;50.872;4.712;2023-11-22T08:36:45;4.03;;;1.73;;
8777;SDS011;4425;50.872;4.712;2023-11-22T08:39:13;1.90;;;1.50;;
8777;SDS011;4425;50.872;4.712;2023-11-22T08:41:41;32.00;;;16.27;;
8777;SDS011;4425;50.872;4.712;2023-11-22T08:44:08;29.45;;;14.60;;
8777;SDS011;4425;50.872;4.712;2023-11-22T08:46:35;28.48;;;15.38;;
8777;SDS011;4425;50.872;4.712;2023-11-22T08:49:02;22.83;;;11.43;;
8777;SDS011;4425;50.872;4.712;2023-11-22T08:51:29;0.50;;;0.50;;
8777;SDS011;4425;50.872;4.712;2023-11-22T08:53:56;0.50;;;0.50;;
8777;SDS011;4425;50.872;4.712;2023-11-22T08:56:24;0.20;;;0.20;;
8777;SDS011;4425;50.872;4.712;2023-11-22T08:58:51;0.63;;;0.63;;
8777;SDS011;4425;50.872;4.712;2023-11-22T09:01:19;3.92;;;2.88;;
8777;SDS011;4425;50.872;4.712;2023-11-22T09:03:46;0.20;;;0.20;;
8777;SDS011;4425;50.872;4.712;2023-11-22T09:06:15;0.28;;;0.28;;
8777;SDS011;4425;50.872;4.712;2023-11-22T09:08:42;0.20;;;0.20;;
8777;SDS011;4425;50.872;4.712;2023-11-22T09:11:11;0.30;;;0.30;;
8777;SDS011;4425;50.872;4.712;2023-11-22T09:13:42;0.50;;;0.50;;
8777;SDS011;4425;50.872;4.712;2023-11-22T09:16:10;0.60;;;0.60;;
8777;SDS011;4425;50.872;4.712;2023-11-22T09:18:38;2.00;;;1.90;;
8777;SDS011;4425;50.872;4.712;2023-11-22T09:21:08;0.20;;;0.20;;
8777;SDS011;4425;50.872;4.712;2023-11-22T09:23:35;0.60;;;0.60;;
8777;SDS011;4425;50.872;4.712;2023-11-22T09:26:03;0.32;;;0.32;;
8777;SDS011;4425;50.872;4.712;2023-11-22T09:28:30;0.40;;;0.40;;
8777;SDS011;4425;50.872;4.712;2023-11-22T09:30:58;0.40;;;0.40;;
8777;SDS011;4425;50.872;4.712;2023-11-22T09:33:31;0.60;;;0.60;;
8777;SDS011;4425;50.872;4.712;2023-11-22T09:35:58;0.47;;;0.47;;
8777;SDS011;4425;50.872;4.712;2023-11-22T09:38:25;0.30;;;0.30;;
8777;SDS011;4425;50.872;4.712;2023-11-22T09:40:52;0.50;;;0.50;;
8777;SDS011;4425;50.872;4.712;2023-11-22T09:43:19;0.30;;;0.30;;
8777;SDS011;4425;50.872;4.712;2023-11-22T09:45:48;2.00;;;0.70;;
8777;SDS011;4425;50.872;4.712;2023-11-22T09:48:17;34.03;;;17.40;;
8777;SDS011;4425;50.872;4.712;2023-11-22T09:50:49;29.10;;;17.20;;
8777;SDS011;4425;50.872;4.712;2023-11-22T09:53:26;26.53;;;17.40;;
8777;SDS011;4425;50.872;4.712;2023-11-22T09:55:58;24.73;;;15.20;;
8777;SDS011;4425;50.872;4.712;2023-11-22T09:58:26;26.08;;;17.40;;
8777;SDS011;4425;50.872;4.712;2023-11-22T10:00:56;21.02;;;11.93;;
8777;SDS011;4425;50.872;4.712;2023-11-22T10:03:25;0.40;;;0.40;;
8777;SDS011;4425;50.872;4.712;2023-11-22T10:05:53;1.00;;;0.80;;
8777;SDS011;4425;50.872;4.712;2023-11-22T10:08:22;2.20;;;2.00;;
8777;SDS011;4425;50.872;4.712;2023-11-22T10:10:49;0.20;;;0.20;;
8777;SDS011;4425;50.872;4.712;2023-11-22T10:13:19;0.40;;;0.40;;
8777;SDS011;4425;50.872;4.712;2023-11-22T10:15:46;1.20;;;1.10;;
8777;SDS011;4425;50.872;4.712;2023-11-22T10:18:14;0.30;;;0.30;;
8777;SDS011;4425;50.872;4.712;2023-11-22T10:20:44;0.20;;;0.20;;
8777;SDS011;4425;50.872;4.712;2023-11-22T10:23:14;0.32;;;0.32;;
8777;SDS011;4425;50.872;4.712;2023-11-22T10:25:43;0.80;;;0.80;;
8777;SDS011;4425;50.872;4.712;2023-11-22T10:28:12;0.25;;;0.25;;
8777;SDS011;4425;50.872;4.712;2023-11-22T10:30:39;0.43;;;0.43;;
8777;SDS011;4425;50.872;4.712;2023-11-22T10:33:09;25.58;;;14.45;;
8777;SDS011;4425;50.872;4.712;2023-11-22T10:35:38;27.05;;;16.92;;
8777;SDS011;4425;50.872;4.712;2023-11-22T10:38:09;24.65;;;13.27;;
8777;SDS011;4425;50.872;4.712;2023-11-22T10:40:37;0.20;;;0.20;;
8777;SDS011;4425;50.872;4.712;2023-11-22T10:43:04;20.10;;;12.18;;
8777;SDS011;4425;50.872;4.712;2023-11-22T10:45:33;0.80;;;0.80;;
8777;SDS011;4425;50.872;4.712;2023-11-22T10:48:02;23.02;;;16.48;;
8777;SDS011;4425;50.872;4.712;2023-11-22T10:50:30;20.75;;;15.45;;
8777;SDS011;4425;50.872;4.712;2023-11-22T10:52:57;23.52;;;15.25;;
8777;SDS011;4425;50.872;4.712;2023-11-22T10:55:27;0.70;;;0.70;;
8777;SDS011;4425;50.872;4.712;2023-11-22T10:58:00;0.20;;;0.20;;
8777;SDS011;4425;50.872;4.712;2023-11-22T11:00:29;0.32;;;0.32;;
8777;SDS011;4425;50.872;4.712;2023-11-22T11:02:58;1.00;;;1.00;;
8777;SDS011;4425;50.872;4.712;2023-11-22T11:05:30;0.30;;;0.30;;
8777;SDS011;4425;50.872;4.712;2023-11-22T11:07:59;0.68;;;0.68;;
8777;SDS011;4425;50.872;4.712;2023-11-22T11:10:33;0.85;;;0.85;;
8777;SDS011;4425;50.872;4.712;2023-11-22T11:13:00;2.50;;;2.30;;
8777;SDS011;4425;50.872;4.712;2023-11-22T11:15:28;0.20;;;0.20;;
8777;SDS011;4425;50.872;4.712;2023-11-22T11:17:55;1.70;;;1.60;;
8777;SDS011;4425;50.872;4.712;2023-11-22T11:20:23;1.77;;;1.67;;
8777;SDS011;4425;50.872;4.712;2023-11-22T11:22:52;1.40;;;1.20;;
8777;SDS011;4425;50.872;4.712;2023-11-22T11:25:20;1.20;;;0.85;;
8777;SDS011;4425;50.872;4.712;2023-11-22T11:27:59;1.02;;;1.02;;
8777;SDS011;4425;50.872;4.712;2023-11-22T11:30:42;2.50;;;1.80;;
8777;SDS011;4425;50.872;4.712;2023-11-22T11:33:11;0.30;;;0.30;;
8777;SDS011;4425;50.872;4.712;2023-11-22T11:35:41;0.20;;;0.20;;
8777;SDS011;4425;50.872;4.712;2023-11-22T11:38:11;0.30;;;0.30;;
8777;SDS011;4425;50.872;4.712;2023-11-22T11:40:40;0.90;;;0.90;;
8777;SDS011;4425;50.872;4.712;2023-11-22T11:43:09;0.83;;;0.83;;
8777;SDS011;4425;50.872;4.712;2023-11-22T11:45:37;1.05;;;1.05;;
8777;SDS011;4425;50.872;4.712;2023-11-22T11:48:12;14.63;;;9.67;;
8777;SDS011;4425;50.872;4.712;2023-11-22T11:50:40;14.48;;;9.02;;
8777;SDS011;4425;50.872;4.712;2023-11-22T11:53:07;13.73;;;8.77;;
8777;SDS011;4425;50.872;4.712;2023-11-22T11:55:35;0.20;;;0.20;;
8777;SDS011;4425;50.872;4.712;2023-11-22T11:58:04;0.60;;;0.60;;
8777;SDS011;4425;50.872;4.712;2023-11-22T12:00:36;1.10;;;1.10;;
8777;SDS011;4425;50.872;4.712;2023-11-22T12:03:05;0.22;;;0.22;;
8777;SDS011;4425;50.872;4.712;2023-11-22T12:05:35;1.40;;;1.30;;
8777;SDS011;4425;50.872;4.712;2023-11-22T12:08:02;1.00;;;1.00;;
8777;SDS011;4425;50.872;4.712;2023-11-22T12:10:30;0.45;;;0.45;;
8777;SDS011;4425;50.872;4.712;2023-11-22T12:12:57;0.13;;;0.13;;
8777;SDS011;4425;50.872;4.712;2023-11-22T12:15:26;0.60;;;0.55;;
8777;SDS011;4425;50.872;4.712;2023-11-22T12:17:56;0.20;;;0.20;;
8777;SDS011;4425;50.872;4.712;2023-11-22T12:20:27;0.37;;;0.37;;
8777;SDS011;4425;50.872;4.712;2023-11-22T12:22:57;16.20;;;9.40;;
8777;SDS011;4425;50.872;4.712;2023-11-22T12:25:27;17.27;;;10.02;;
8777;SDS011;4425;50.872;4.712;2023-11-22T12:27:56;17.38;;;9.30;;
8777;SDS011;4425;50.872;4.712;2023-11-22T12:30:27;0.20;;;0.20;;
8777;SDS011;4425;50.872;4.712;2023-11-22T12:32:58;10.02;;;6.40;;
8777;SDS011;4425;50.872;4.712;2023-11-22T12:35:27;1.05;;;0.57;;
8777;SDS011;4425;50.872;4.712;2023-11-22T12:37:56;0.30;;;0.30;;
8777;SDS011;4425;50.872;4.712;2023-11-22T12:40:27;0.98;;;0.98;;
8777;SDS011;4425;50.872;4.712;2023-11-22T12:42:56;0.68;;;0.68;;
8777;SDS011;4425;50.872;4.712;2023-11-22T12:45:39;0.70;;;0.70;;
8777;SDS011;4425;50.872;4.712;2023-11-22T12:51:15;0.20;;;0.20;;
8777;SDS011;4425;50.872;4.712;2023-11-22T12:53:45;0.80;;;0.60;;
8777;SDS011;4425;50.872;4.712;2023-11-22T12:56:13;0.55;;;0.55;;
8777;SDS011;4425;50.872;4.712;2023-11-22T12:58:40;0.30;;;0.30;;
8777;SDS011;4425;50.872;4.712;2023-11-22T13:01:07;1.13;;;1.13;;
8777;SDS011;4425;50.872;4.712;2023-11-22T13:03:34;13.63;;;9.80;;
8777;SDS011;4425;50.872;4.712;2023-11-22T13:06:02;1.40;;;1.40;;
8777;SDS011;4425;50.872;4.712;2023-11-22T13:08:34;0.75;;;0.75;;
8777;SDS011;4425;50.872;4.712;2023-11-22T13:11:01;14.57;;;10.30;;
8777;SDS011;4425;50.872;4.712;2023-11-22T13:13:28;13.52;;;10.63;;
8777;SDS011;4425;50.872;4.712;2023-11-22T13:15:56;0.47;;;0.47;;
8777;SDS011;4425;50.872;4.712;2023-11-22T13:18:23;0.30;;;0.30;;
8777;SDS011;4425;50.872;4.712;2023-11-22T13:20:51;0.68;;;0.68;;
8777;SDS011;4425;50.872;4.712;2023-11-22T13:23:18;0.30;;;0.30;;
8777;SDS011;4425;50.872;4.712;2023-11-22T13:25:47;0.50;;;0.50;;
8777;SDS011;4425;50.872;4.712;2023-11-22T13:28:14;2.10;;;1.20;;
8777;SDS011;4425;50.872;4.712;2023-11-22T13:30:41;1.50;;;1.40;;
8777;SDS011;4425;50.872;4.712;2023-11-22T13:33:08;16.25;;;11.38;;
8777;SDS011;4425;50.872;4.712;2023-11-22T13:35:37;13.88;;;9.02;;
8777;SDS011;4425;50.872;4.712;2023-11-22T13:38:04;0.65;;;0.63;;
8777;SDS011;4425;50.872;4.712;2023-11-22T13:40:35;0.50;;;0.50;;
8777;SDS011;4425;50.872;4.712;2023-11-22T13:43:06;3.42;;;1.55;;
8777;SDS011;4425;50.872;4.712;2023-11-22T13:45:38;0.40;;;0.40;;
8777;SDS011;4425;50.872;4.712;2023-11-22T13:48:07;0.88;;;0.88;;
8777;SDS011;4425;50.872;4.712;2023-11-22T13:50:37;0.55;;;0.55;;
8777;SDS011;4425;50.872;4.712;2023-11-22T13:53:04;0.20;;;0.20;;
8777;SDS011;4425;50.872;4.712;2023-11-22T13:55:36;0.22;;;0.22;;
8777;SDS011;4425;50.872;4.712;2023-11-22T13:58:06;0.30;;;0.30;;
8777;SDS011;4425;50.872;4.712;2023-11-22T14:00:34;1.92;;;1.83;;
8777;SDS011;4425;50.872;4.712;2023-11-22T14:03:04;0.80;;;0.70;;
8777;SDS011;4425;50.872;4.712;2023-11-22T14:05:37;0.30;;;0.30;;
8777;SDS011;4425;50.872;4.712;2023-11-22T14:08:04;0.20;;;0.20;;
8777;SDS011;4425;50.872;4.712;2023-11-22T14:10:33;0.30;;;0.30;;
8777;SDS011;4425;50.872;4.712;2023-11-22T14:13:00;0.20;;;0.20;;
8777;SDS011;4425;50.872;4.712;2023-11-22T14:15:29;0.30;;;0.30;;
8777;SDS011;4425;50.872;4.712;2023-11-22T14:17:57;0.93;;;0.93;;
8777;SDS011;4425;50.872;4.712;2023-11-22T14:20:24;0.30;;;0.30;;
8777;SDS011;4425;50.872;4.712;2023-11-22T14:22:51;0.20;;;0.20;;
8777;SDS011;4425;50.872;4.712;2023-11-22T14:25:21;0.20;;;0.20;;
8777;SDS011;4425;50.872;4.712;2023-11-22T14:27:48;17.00;;;11.77;;
8777;SDS011;4425;50.872;4.712;2023-11-22T14:30:18;15.82;;;10.07;;
8777;SDS011;4425;50.872;4.712;2023-11-22T14:32:47;1.60;;;1.60;;
8777;SDS011;4425;50.872;4.712;2023-11-22T14:35:16;19.05;;;11.75;;
8777;SDS011;4425;50.872;4.712;2023-11-22T14:37:43;15.95;;;11.77;;
8777;SDS011;4425;50.872;4.712;2023-11-22T14:40:11;15.30;;;11.85;;
8777;SDS011;4425;50.872;4.712;2023-11-22T14:42:39;0.60;;;0.60;;
8777;SDS011;4425;50.872;4.712;2023-11-22T14:45:07;0.57;;;0.57;;
8777;SDS011;4425;50.872;4.712;2023-11-22T14:47:36;1.50;;;0.60;;
8777;SDS011;4425;50.872;4.712;2023-11-22T14:50:19;0.80;;;0.80;;
8777;SDS011;4425;50.872;4.712;2023-11-22T14:52:46;0.30;;;0.30;;
8777;SDS011;4425;50.872;4.712;2023-11-22T14:55:16;0.60;;;0.60;;
8777;SDS011;4425;50.872;4.712;2023-11-22T14:57:44;1.60;;;0.73;;
8777;SDS011;4425;50.872;4.712;2023-11-22T15:00:11;0.30;;;0.30;;
8777;SDS011;4425;50.872;4.712;2023-11-22T15:02:39;2.00;;;1.90;;
8777;SDS011;4425;50.872;4.712;2023-11-22T15:05:07;0.30;;;0.30;;
8777;SDS011;4425;50.872;4.712;2023-11-22T15:07:39;0.38;;;0.38;;
8777;SDS011;4425;50.872;4.712;2023-11-22T15:10:07;0.50;;;0.50;;
8777;SDS011;4425;50.872;4.712;2023-11-22T15:12:35;0.30;;;0.30;;
8777;SDS011;4425;50.872;4.712;2023-11-22T15:15:02;0.30;;;0.30;;
8777;SDS011;4425;50.872;4.712;2023-11-22T15:17:29;0.30;;;0.30;;
8777;SDS011;4425;50.872;4.712;2023-11-22T15:19:56;0.20;;;0.20;;
8777;SDS011;4425;50.872;4.712;2023-11-22T15:22:23;0.30;;;0.30;;
8777;SDS011;4425;50.872;4.712;2023-11-22T15:24:52;5.65;;;3.92;;
8777;SDS011;4425;50.872;4.712;2023-11-22T15:27:19;14.23;;;10.23;;
8777;SDS011;4425;50.872;4.712;2023-11-22T15:29:46;16.00;;;8.98;;
8777;SDS011;4425;50.872;4.712;2023-11-22T15:32:13;0.20;;;0.20;;
8777;SDS011;4425;50.872;4.712;2023-11-22T15:34:40;0.20;;;0.20;;
8777;SDS011;4425;50.872;4.712;2023-11-22T15:37:07;0.35;;;0.35;;
8777;SDS011;4425;50.872;4.712;2023-11-22T15:39:36;0.47;;;0.47;;
8777;SDS011;4425;50.872;4.712;2023-11-22T15:42:05;0.30;;;0.30;;
8777;SDS011;4425;50.872;4.712;2023-11-22T15:44:32;0.65;;;0.65;;
8777;SDS011;4425;50.872;4.712;2023-11-22T15:46:59;0.30;;;0.30;;
8777;SDS011;4425;50.872;4.712;2023-11-22T15:49:30;0.20;;;0.20;;
8777;SDS011;4425;50.872;4.712;2023-11-22T15:51:56;0.70;;;0.70;;
8777;SDS011;4425;50.872;4.712;2023-11-22T15:54:23;0.30;;;0.30;;
8777;SDS011;4425;50.872;4.712;2023-11-22T15:56:50;0.60;;;0.60;;
8777;SDS011;4425;50.872;4.712;2023-11-22T15:59:19;1.00;;;0.40;;
8777;SDS011;4425;50.872;4.712;2023-11-22T16:01:46;0.40;;;0.40;;
8777;SDS011;4425;50.872;4.712;2023-11-22T16:04:13;2.15;;;0.73;;
8777;SDS011;4425;50.872;4.712;2023-11-22T16:06:40;0.30;;;0.30;;
8777;SDS011;4425;50.872;4.712;2023-11-22T16:09:07;0.52;;;0.52;;
8777;SDS011;4425;50.872;4.712;2023-11-22T16:11:37;0.40;;;0.40;;
8777;SDS011;4425;50.872;4.712;2023-11-22T16:14:05;4.13;;;2.63;;
8777;SDS011;4425;50.872;4.712;2023-11-22T16:16:33;0.37;;;0.37;;
8777;SDS011;4425;50.872;4.712;2023-11-22T16:19:01;0.20;;;0.20;;
8777;SDS011;4425;50.872;4.712;2023-11-22T16:21:30;2.55;;;0.65;;
8777;SDS011;4425;50.872;4.712;2023-11-22T16:23:58;0.20;;;0.20;;
8777;SDS011;4425;50.872;4.712;2023-11-22T16:26:25;0.20;;;0.20;;
8777;SDS011;4425;50.872;4.712;2023-11-22T16:28:53;0.28;;;0.28;;
8777;SDS011;4425;50.872;4.712;2023-11-22T16:31:20;0.20;;;0.20;;
8777;SDS011;4425;50.872;4.712;2023-11-22T16:33:49;0.20;;;0.20;;
8777;SDS011;4425;50.872;4.712;2023-11-22T16:36:18;0.28;;;0.28;;
8777;SDS011;4425;50.872;4.712;2023-11-22T16:38:47;1.30;;;1.10;;
8777;SDS011;4425;50.872;4.712;2023-11-22T16:41:14;0.70;;;0.70;;
8777;SDS011;4425;50.872;4.712;2023-11-22T16:43:42;1.02;;;1.02;;
8777;SDS011;4425;50.872;4.712;2023-11-22T16:46:09;0.50;;;0.50;;
8777;SDS011;4425;50.872;4.712;2023-11-22T16:48:36;1.80;;;0.98;;